Moran, WY

12:21 AM MDT on April 26, 2017 (GMT -0600)
MSEYW4 | | Change Station
Active Advisory: Winter Weather Advisory

Elev 6894 ft 44.13 °N, 110.67 °W | Updated 59 minutes ago

Overcast
Overcast
33.0 °F
Feels Like 33.0 °F
N
-
Wind Variable Wind from North

Today
High -- | Low -- °F
--% Chance of Precip.
Yesterday
High -- | Low -- °F
Precip. -- in
Pressure 29.88 in
Visibility 10.0 miles
Clouds Mostly Cloudy 1100 ft
Mostly Cloudy 2200 ft
Overcast 4300 ft
Dew Point Not available.
Humidity Not available.
Rainfall in
Snow Depth Not available.
6:20 AM 8:20 PM
Waning Crescent, 0% visible
METAR KJAC 260615Z AUTO 00000KT 10SM BKN011 BKN022 OVC043 01/00 A2988 RMK AO1
Pressure 29.88 in
Visibility 10.0 miles
Clouds Mostly Cloudy 1100 ft
Mostly Cloudy 2200 ft
Overcast 4300 ft
Dew Point Not available.
Humidity Not available.
Rainfall in
Snow Depth Not available.
6:20 AM 8:20 PM
Waning Crescent, 0% visible
METAR KJAC 260615Z AUTO 00000KT 10SM BKN011 BKN022 OVC043 01/00 A2988 RMK AO1

Get Your Daily Forecast Email!

Thanks for signing up!

Be on the lookout for a verification email in your inbox.

You'll start receiving severe weather alerts in your inbox..

×

10-Day Weather Forecast

Almanac

Astronomy

Apr. 26, 2017 Rise Set
Actual Time
Civil Twilight
Nautical Twilight
Astronomical Twilight
Moon
Length of Visible Light
Length of Day
Tomorrow will be .
, % of the Moon is Illuminated

Today's Extremes

State Highs State Lows

Community

WunderPhotos

WunderBlog® & News

Nearby

Air Quality

  Air Quality AQ Index Pollutant
Not available.

Snow Depth

Station Depth Elevation

Earthquake Activity

City Distance Mag. Time & Date
Minimum magnitude displayed is 2.5.

Coastal Water Temperatures

Place Temperature

Stations

Nearby Weather Stations

Station Location Temp. Windchill Dew Point Humidity Wind Precip. Elev Updated Type
                   

Watches & Warnings

Winter Weather Advisory
Issued: 9:25 PM MDT Apr. 25, 2017 – National Weather Service

... Winter Weather Advisory in effect from noon Wednesday to noon
MDT Thursday...

The National Weather Service in Riverton has issued a Winter
Weather Advisory for snow, which is in effect from noon Wednesday
to noon MDT Thursday.

* Timing... snow will become steadier and heavier tomorrow
afternoon and continue into Thursday. The heaviest snow is
expected later Wednesday night and Thursday morning.

* Total snowfall... 6 to 12 inches.

* Other impacts... highways will become slick and snow covered,
including Teton and togwotee passes. Visibility could be
reduced to under one half mile at times.

Precautionary/preparedness actions...

A Winter Weather Advisory for snow means periods of snow will
cause primarily travel difficulties. Be prepared for snow covered
and slick roads with limited visibilities. Slow down, and allow
extra time to reach your destination. Check the latest Road
conditions at wyoroad.Info or by dialing 5 1 1.